sensor_id;sensor_type;location;lat;lon;timestamp;pressure;altitude;pressure_sealevel;temperature;humidity
72038;BME280;59900;50.788;12.904;2024-03-17T00:02:02;98118.22;;;4.03;82.80
72038;BME280;59900;50.788;12.904;2024-03-17T00:04:28;98126.16;;;4.01;82.65
72038;BME280;59900;50.788;12.904;2024-03-17T00:06:53;98130.69;;;3.99;82.53
72038;BME280;59900;50.788;12.904;2024-03-17T00:09:19;98129.72;;;4.00;82.17
72038;BME280;59900;50.788;12.904;2024-03-17T00:11:45;98129.72;;;4.00;82.90
72038;BME280;59900;50.788;12.904;2024-03-17T00:14:10;98128.78;;;4.01;82.45
72038;BME280;59900;50.788;12.904;2024-03-17T00:16:36;98132.72;;;4.05;82.74
72038;BME280;59900;50.788;12.904;2024-03-17T00:19:02;98123.13;;;4.06;82.51
72038;BME280;59900;50.788;12.904;2024-03-17T00:21:27;98129.03;;;4.08;82.03
72038;BME280;59900;50.788;12.904;2024-03-17T00:23:52;98122.84;;;4.09;81.57
72038;BME280;59900;50.788;12.904;2024-03-17T00:26:18;98130.81;;;4.07;81.88
72038;BME280;59900;50.788;12.904;2024-03-17T00:28:44;98131.22;;;4.03;82.07
72038;BME280;59900;50.788;12.904;2024-03-17T00:31:12;98119.72;;;4.05;82.08
72038;BME280;59900;50.788;12.904;2024-03-17T00:33:37;98124.63;;;4.08;81.40
72038;BME280;59900;50.788;12.904;2024-03-17T00:36:02;98124.63;;;4.08;81.52
72038;BME280;59900;50.788;12.904;2024-03-17T00:38:27;98128.75;;;4.11;80.86
72038;BME280;59900;50.788;12.904;2024-03-17T00:40:53;98127.22;;;4.08;80.80
72038;BME280;59900;50.788;12.904;2024-03-17T00:43:18;98125.31;;;4.10;81.30
72038;BME280;59900;50.788;12.904;2024-03-17T00:45:43;98129.81;;;4.08;81.46
72038;BME280;59900;50.788;12.904;2024-03-17T00:48:08;98125.31;;;4.10;81.29
72038;BME280;59900;50.788;12.904;2024-03-17T00:50:34;98121.06;;;4.09;81.22
72038;BME280;59900;50.788;12.904;2024-03-17T00:53:00;98109.03;;;4.08;81.09
72038;BME280;59900;50.788;12.904;2024-03-17T00:55:26;98121.06;;;4.09;80.88
72038;BME280;59900;50.788;12.904;2024-03-17T00:57:52;98122.19;;;4.07;81.43
72038;BME280;59900;50.788;12.904;2024-03-17T01:00:17;98113.44;;;4.08;81.04
72038;BME280;59900;50.788;12.904;2024-03-17T01:02:43;98116.81;;;4.08;80.60
72038;BME280;59900;50.788;12.904;2024-03-17T01:05:08;98123.84;;;4.08;80.49
72038;BME280;59900;50.788;12.904;2024-03-17T01:07:33;98121.91;;;4.10;80.78
72038;BME280;59900;50.788;12.904;2024-03-17T01:09:59;98115.06;;;4.09;80.69
72038;BME280;59900;50.788;12.904;2024-03-17T01:12:25;98122.03;;;4.08;80.60
72038;BME280;59900;50.788;12.904;2024-03-17T01:14:50;98116.81;;;4.08;81.25
72038;BME280;59900;50.788;12.904;2024-03-17T01:17:15;98116.16;;;4.06;81.14
72038;BME280;59900;50.788;12.904;2024-03-17T01:19:41;98111.91;;;4.05;81.06
72038;BME280;59900;50.788;12.904;2024-03-17T01:22:06;98114.66;;;4.04;80.99
72038;BME280;59900;50.788;12.904;2024-03-17T01:24:32;98119.03;;;4.03;81.14
72038;BME280;59900;50.788;12.904;2024-03-17T01:26:59;98120.81;;;4.03;80.99
72038;BME280;59900;50.788;12.904;2024-03-17T01:29:24;98115.59;;;4.03;81.39
72038;BME280;59900;50.788;12.904;2024-03-17T01:31:50;98123.56;;;4.01;81.29
72038;BME280;59900;50.788;12.904;2024-03-17T01:34:16;98119.84;;;4.04;81.23
72038;BME280;59900;50.788;12.904;2024-03-17T01:36:41;98114.66;;;4.04;80.67
72038;BME280;59900;50.788;12.904;2024-03-17T01:39:06;98109.47;;;4.04;81.00
72038;BME280;59900;50.788;12.904;2024-03-17T01:41:32;98112.22;;;4.02;81.52
72038;BME280;59900;50.788;12.904;2024-03-17T01:43:57;98106.19;;;4.02;81.15
72038;BME280;59900;50.788;12.904;2024-03-17T01:46:24;98115.88;;;4.00;81.33
72038;BME280;59900;50.788;12.904;2024-03-17T01:48:50;98108.25;;;3.98;81.64
72038;BME280;59900;50.788;12.904;2024-03-17T01:51:15;98107.56;;;3.96;81.52
72038;BME280;59900;50.788;12.904;2024-03-17T01:53:41;98110.56;;;3.91;82.12
72038;BME280;59900;50.788;12.904;2024-03-17T01:56:10;98103.72;;;3.90;81.56
72038;BME280;59900;50.788;12.904;2024-03-17T01:58:36;98107.03;;;3.92;81.86
72038;BME280;59900;50.788;12.904;2024-03-17T02:01:01;98111.41;;;3.92;82.07
72038;BME280;59900;50.788;12.904;2024-03-17T02:03:26;98108.94;;;3.90;81.96
72038;BME280;59900;50.788;12.904;2024-03-17T02:05:52;98109.91;;;3.89;81.63
72038;BME280;59900;50.788;12.904;2024-03-17T02:08:17;98105.66;;;3.88;81.90
72038;BME280;59900;50.788;12.904;2024-03-17T02:10:43;98102.38;;;3.86;81.75
72038;BME280;59900;50.788;12.904;2024-03-17T02:13:09;98117.44;;;3.83;81.92
72038;BME280;59900;50.788;12.904;2024-03-17T02:15:37;98111.56;;;3.81;82.46
72038;BME280;59900;50.788;12.904;2024-03-17T02:18:03;98114.44;;;3.78;81.83
72038;BME280;59900;50.788;12.904;2024-03-17T02:20:28;98111.97;;;3.76;82.38
72038;BME280;59900;50.788;12.904;2024-03-17T02:23:12;98115.81;;;3.72;82.63
72038;BME280;59900;50.788;12.904;2024-03-17T02:25:37;98115.00;;;3.72;82.57
72038;BME280;59900;50.788;12.904;2024-03-17T02:28:03;98106.22;;;3.73;82.53
72038;BME280;59900;50.788;12.904;2024-03-17T02:30:28;98111.41;;;3.73;82.49
72038;BME280;59900;50.788;12.904;2024-03-17T02:32:54;98113.91;;;3.74;82.30
72038;BME280;59900;50.788;12.904;2024-03-17T02:35:21;98105.44;;;3.72;82.05
72038;BME280;59900;50.788;12.904;2024-03-17T02:37:47;98107.03;;;3.73;81.80
72038;BME280;59900;50.788;12.904;2024-03-17T02:40:12;98105.94;;;3.76;81.82
72038;BME280;59900;50.788;12.904;2024-03-17T02:42:37;98100.63;;;3.77;82.01
72038;BME280;59900;50.788;12.904;2024-03-17T02:45:04;98108.97;;;3.81;81.55
72038;BME280;59900;50.788;12.904;2024-03-17T02:47:29;98104.72;;;3.80;81.80
72038;BME280;59900;50.788;12.904;2024-03-17T02:49:55;98102.13;;;3.80;80.89
72038;BME280;59900;50.788;12.904;2024-03-17T02:52:20;98114.00;;;3.82;81.37
72038;BME280;59900;50.788;12.904;2024-03-17T02:54:45;98106.38;;;3.81;81.08
72038;BME280;59900;50.788;12.904;2024-03-17T02:57:10;98111.69;;;3.79;81.67
72038;BME280;59900;50.788;12.904;2024-03-17T02:59:36;98104.16;;;3.76;81.44
72038;BME280;59900;50.788;12.904;2024-03-17T03:02:01;98105.66;;;3.79;81.13
72038;BME280;59900;50.788;12.904;2024-03-17T03:04:27;98113.34;;;3.80;81.30
72038;BME280;59900;50.788;12.904;2024-03-17T03:06:53;98110.75;;;3.80;81.14
72038;BME280;59900;50.788;12.904;2024-03-17T03:09:18;98103.78;;;3.81;81.22
72038;BME280;59900;50.788;12.904;2024-03-17T03:11:59;98099.53;;;3.80;81.20
72038;BME280;59900;50.788;12.904;2024-03-17T03:14:25;98097.75;;;3.80;81.42
72038;BME280;59900;50.788;12.904;2024-03-17T03:16:51;98100.34;;;3.80;81.44
72038;BME280;59900;50.788;12.904;2024-03-17T03:19:16;98105.38;;;3.82;81.29
72038;BME280;59900;50.788;12.904;2024-03-17T03:21:42;98107.88;;;3.83;81.46
72038;BME280;59900;50.788;12.904;2024-03-17T03:24:07;98100.91;;;3.84;81.77
72038;BME280;59900;50.788;12.904;2024-03-17T03:26:32;98104.16;;;3.86;81.46
72038;BME280;59900;50.788;12.904;2024-03-17T03:28:58;98095.53;;;3.85;81.56
72038;BME280;59900;50.788;12.904;2024-03-17T03:31:23;98104.16;;;3.86;81.44
72038;BME280;59900;50.788;12.904;2024-03-17T03:33:49;98101.56;;;3.86;81.32
72038;BME280;59900;50.788;12.904;2024-03-17T03:36:15;98092.13;;;3.85;81.67
72038;BME280;59900;50.788;12.904;2024-03-17T03:38:41;98093.09;;;3.84;80.97
72038;BME280;59900;50.788;12.904;2024-03-17T03:41:14;98087.06;;;3.83;81.43
72038;BME280;59900;50.788;12.904;2024-03-17T03:43:39;98094.03;;;3.83;81.71
72038;BME280;59900;50.788;12.904;2024-03-17T03:46:05;98087.19;;;3.82;81.74
72038;BME280;59900;50.788;12.904;2024-03-17T03:48:31;98091.44;;;3.83;81.60
72038;BME280;59900;50.788;12.904;2024-03-17T03:50:57;98098.28;;;3.84;81.67
72038;BME280;59900;50.788;12.904;2024-03-17T03:53:22;98108.69;;;3.84;81.56
72038;BME280;59900;50.788;12.904;2024-03-17T03:55:48;98103.34;;;3.85;81.78
72038;BME280;59900;50.788;12.904;2024-03-17T03:58:14;98104.44;;;3.83;81.51
72038;BME280;59900;50.788;12.904;2024-03-17T04:00:39;98105.38;;;3.82;81.68
72038;BME280;59900;50.788;12.904;2024-03-17T04:03:04;98102.41;;;3.77;82.03
72038;BME280;59900;50.788;12.904;2024-03-17T04:05:30;98100.91;;;3.74;82.24
72038;BME280;59900;50.788;12.904;2024-03-17T04:07:56;98102.94;;;3.71;82.40
72038;BME280;59900;50.788;12.904;2024-03-17T04:10:21;98108.31;;;3.69;82.63
72038;BME280;59900;50.788;12.904;2024-03-17T04:12:46;98102.28;;;3.69;82.99
72038;BME280;59900;50.788;12.904;2024-03-17T04:15:12;98099.53;;;3.70;82.92
72038;BME280;59900;50.788;12.904;2024-03-17T04:17:39;98097.75;;;3.71;83.08
72038;BME280;59900;50.788;12.904;2024-03-17T04:20:05;98099.41;;;3.72;83.45
72038;BME280;59900;50.788;12.904;2024-03-17T04:22:34;98093.38;;;3.71;83.02
72038;BME280;59900;50.788;12.904;2024-03-17T04:25:00;98096.66;;;3.73;83.30
72038;BME280;59900;50.788;12.904;2024-03-17T04:27:26;98094.06;;;3.73;83.03
72038;BME280;59900;50.788;12.904;2024-03-17T04:29:55;98092.44;;;3.72;83.07
72038;BME280;59900;50.788;12.904;2024-03-17T04:32:21;98102.81;;;3.72;83.35
72038;BME280;59900;50.788;12.904;2024-03-17T04:34:47;98093.22;;;3.73;83.08
72038;BME280;59900;50.788;12.904;2024-03-17T04:37:13;98101.34;;;3.70;83.53
72038;BME280;59900;50.788;12.904;2024-03-17T04:39:39;98098.03;;;3.68;83.45
72038;BME280;59900;50.788;12.904;2024-03-17T04:42:05;98098.03;;;3.68;83.64
72038;BME280;59900;50.788;12.904;2024-03-17T04:44:31;98104.88;;;3.69;84.15
72038;BME280;59900;50.788;12.904;2024-03-17T04:46:57;98116.66;;;3.63;83.71
72038;BME280;59900;50.788;12.904;2024-03-17T04:49:22;98106.09;;;3.65;83.64
72038;BME280;59900;50.788;12.904;2024-03-17T04:51:47;98112.41;;;3.62;83.91
72038;BME280;59900;50.788;12.904;2024-03-17T04:54:13;98111.72;;;3.60;83.80
72038;BME280;59900;50.788;12.904;2024-03-17T04:56:38;98121.97;;;3.62;83.67
72038;BME280;59900;50.788;12.904;2024-03-17T04:59:03;98116.22;;;3.58;83.65
72038;BME280;59900;50.788;12.904;2024-03-17T05:01:30;98120.34;;;3.61;83.89
72038;BME280;59900;50.788;12.904;2024-03-17T05:03:56;98120.47;;;3.59;83.86
72038;BME280;59900;50.788;12.904;2024-03-17T05:06:21;98120.47;;;3.59;83.62
72038;BME280;59900;50.788;12.904;2024-03-17T05:08:47;98119.81;;;3.57;84.08
72038;BME280;59900;50.788;12.904;2024-03-17T05:11:12;98124.84;;;3.59;84.29
72038;BME280;59900;50.788;12.904;2024-03-17T05:13:39;98129.22;;;3.58;84.11
72038;BME280;59900;50.788;12.904;2024-03-17T05:16:04;98120.75;;;3.56;84.34
72038;BME280;59900;50.788;12.904;2024-03-17T05:18:30;98128.41;;;3.58;84.32
72038;BME280;59900;50.788;12.904;2024-03-17T05:21:05;98133.63;;;3.58;84.88
72038;BME280;59900;50.788;12.904;2024-03-17T05:23:32;98123.91;;;3.60;84.83
72038;BME280;59900;50.788;12.904;2024-03-17T05:25:59;98123.63;;;3.63;84.67
72038;BME280;59900;50.788;12.904;2024-03-17T05:28:26;98127.16;;;3.62;84.69
72038;BME280;59900;50.788;12.904;2024-03-17T05:30:51;98131.53;;;3.61;84.64
72038;BME280;59900;50.788;12.904;2024-03-17T05:33:18;98137.28;;;3.65;84.99
72038;BME280;59900;50.788;12.904;2024-03-17T05:35:53;98141.94;;;3.61;85.33
72038;BME280;59900;50.788;12.904;2024-03-17T05:38:20;98139.34;;;3.61;85.01
72038;BME280;59900;50.788;12.904;2024-03-17T05:40:56;98144.53;;;3.61;85.06
72038;BME280;59900;50.788;12.904;2024-03-17T05:43:23;98145.50;;;3.60;85.60
72038;BME280;59900;50.788;12.904;2024-03-17T05:45:52;98148.94;;;3.61;85.22
72038;BME280;59900;50.788;12.904;2024-03-17T05:48:18;98143.59;;;3.62;85.55
72038;BME280;59900;50.788;12.904;2024-03-17T05:50:43;98156.59;;;3.62;85.57
72038;BME280;59900;50.788;12.904;2024-03-17T05:53:09;98150.56;;;3.62;85.44
72038;BME280;59900;50.788;12.904;2024-03-17T05:55:38;98151.66;;;3.59;85.75
72038;BME280;59900;50.788;12.904;2024-03-17T05:58:04;98162.88;;;3.60;85.96
72038;BME280;59900;50.788;12.904;2024-03-17T06:00:29;98168.75;;;3.62;86.15
72038;BME280;59900;50.788;12.904;2024-03-17T06:02:56;98167.66;;;3.64;85.88
72038;BME280;59900;50.788;12.904;2024-03-17T06:05:21;98168.19;;;3.68;86.31
72038;BME280;59900;50.788;12.904;2024-03-17T06:07:46;98168.19;;;3.68;86.17
72038;BME280;59900;50.788;12.904;2024-03-17T06:10:12;98156.72;;;3.70;85.60
72038;BME280;59900;50.788;12.904;2024-03-17T06:12:37;98163.13;;;3.76;85.64
72038;BME280;59900;50.788;12.904;2024-03-17T06:15:02;98160.41;;;3.77;85.51
72038;BME280;59900;50.788;12.904;2024-03-17T06:17:28;98162.19;;;3.77;85.58
72038;BME280;59900;50.788;12.904;2024-03-17T06:19:53;98154.94;;;3.80;85.71
72038;BME280;59900;50.788;12.904;2024-03-17T06:22:18;98156.16;;;3.86;85.73
72038;BME280;59900;50.788;12.904;2024-03-17T06:24:44;98163.41;;;3.92;85.77
72038;BME280;59900;50.788;12.904;2024-03-17T06:27:09;98171.59;;;3.97;84.95
72038;BME280;59900;50.788;12.904;2024-03-17T06:29:34;98168.88;;;3.99;85.05
72038;BME280;59900;50.788;12.904;2024-03-17T06:31:59;98172.53;;;4.06;85.38
72038;BME280;59900;50.788;12.904;2024-03-17T06:34:25;98178.28;;;4.09;84.88
72038;BME280;59900;50.788;12.904;2024-03-17T06:36:50;98175.41;;;4.12;85.07
72038;BME280;59900;50.788;12.904;2024-03-17T06:39:16;98177.19;;;4.12;84.70
72038;BME280;59900;50.788;12.904;2024-03-17T06:41:42;98182.53;;;4.10;85.26
72038;BME280;59900;50.788;12.904;2024-03-17T06:44:07;98179.66;;;4.13;85.61
72038;BME280;59900;50.788;12.904;2024-03-17T06:46:33;98181.97;;;4.16;85.61
72038;BME280;59900;50.788;12.904;2024-03-17T06:48:58;98192.25;;;4.18;85.39
72038;BME280;59900;50.788;12.904;2024-03-17T06:51:24;98187.72;;;4.20;85.37
72038;BME280;59900;50.788;12.904;2024-03-17T06:53:50;98196.63;;;4.17;85.15
72038;BME280;59900;50.788;12.904;2024-03-17T06:56:15;98200.88;;;4.18;85.37
72038;BME280;59900;50.788;12.904;2024-03-17T06:58:40;98202.53;;;4.19;85.45
72038;BME280;59900;50.788;12.904;2024-03-17T07:01:05;98198.94;;;4.20;85.51
72038;BME280;59900;50.788;12.904;2024-03-17T07:03:31;98199.75;;;4.21;85.35
72038;BME280;59900;50.788;12.904;2024-03-17T07:05:59;98202.91;;;4.24;86.00
72038;BME280;59900;50.788;12.904;2024-03-17T07:08:27;98202.63;;;4.27;85.57
72038;BME280;59900;50.788;12.904;2024-03-17T07:10:59;98202.47;;;4.29;85.16
72038;BME280;59900;50.788;12.904;2024-03-17T07:13:25;98206.31;;;4.34;85.04
72038;BME280;59900;50.788;12.904;2024-03-17T07:15:50;98213.97;;;4.36;85.10
72038;BME280;59900;50.788;12.904;2024-03-17T07:18:15;98201.34;;;4.41;85.14
72038;BME280;59900;50.788;12.904;2024-03-17T07:20:41;98207.94;;;4.45;84.72
72038;BME280;59900;50.788;12.904;2024-03-17T07:23:06;98210.25;;;4.48;84.51
72038;BME280;59900;50.788;12.904;2024-03-17T07:25:32;98209.81;;;4.52;84.45
72038;BME280;59900;50.788;12.904;2024-03-17T07:27:57;98206.09;;;4.55;84.40
72038;BME280;59900;50.788;12.904;2024-03-17T07:30:22;98205.81;;;4.58;85.03
72038;BME280;59900;50.788;12.904;2024-03-17T07:32:47;98217.47;;;4.64;84.51
72038;BME280;59900;50.788;12.904;2024-03-17T07:35:13;98216.66;;;4.63;84.55
72038;BME280;59900;50.788;12.904;2024-03-17T07:37:39;98212.13;;;4.65;84.95
72038;BME280;59900;50.788;12.904;2024-03-17T07:40:05;98219.19;;;4.73;84.66
72038;BME280;59900;50.788;12.904;2024-03-17T07:42:32;98210.81;;;4.79;84.11
72038;BME280;59900;50.788;12.904;2024-03-17T07:44:57;98218.06;;;4.85;84.32
72038;BME280;59900;50.788;12.904;2024-03-17T07:47:22;98223.97;;;4.87;84.05
72038;BME280;59900;50.788;12.904;2024-03-17T07:49:47;98218.19;;;4.93;83.57
72038;BME280;59900;50.788;12.904;2024-03-17T07:52:13;98222.00;;;4.98;84.09
72038;BME280;59900;50.788;12.904;2024-03-17T07:54:38;98222.50;;;5.02;83.50
72038;BME280;59900;50.788;12.904;2024-03-17T07:57:03;98222.09;;;5.06;83.95
72038;BME280;59900;50.788;12.904;2024-03-17T07:59:29;98221.34;;;5.14;84.24
72038;BME280;59900;50.788;12.904;2024-03-17T08:01:56;98222.72;;;5.18;83.87
72038;BME280;59900;50.788;12.904;2024-03-17T08:04:21;98221.75;;;5.19;82.64
72038;BME280;59900;50.788;12.904;2024-03-17T08:06:46;98219.00;;;5.21;81.90
72038;BME280;59900;50.788;12.904;2024-03-17T08:09:12;98225.31;;;5.18;81.92
72038;BME280;59900;50.788;12.904;2024-03-17T08:11:37;98225.97;;;5.20;81.48
72038;BME280;59900;50.788;12.904;2024-03-17T08:14:03;98218.56;;;5.25;82.07
72038;BME280;59900;50.788;12.904;2024-03-17T08:16:29;98216.34;;;5.30;82.01
72038;BME280;59900;50.788;12.904;2024-03-17T08:18:55;98222.59;;;5.37;81.97
72038;BME280;59900;50.788;12.904;2024-03-17T08:21:21;98220.38;;;5.42;80.90
72038;BME280;59900;50.788;12.904;2024-03-17T08:23:46;98224.47;;;5.45;80.83
72038;BME280;59900;50.788;12.904;2024-03-17T08:26:12;98217.19;;;5.48;80.72
72038;BME280;59900;50.788;12.904;2024-03-17T08:28:37;98211.28;;;5.46;80.38
72038;BME280;59900;50.788;12.904;2024-03-17T08:31:03;98206.47;;;5.51;80.66
72038;BME280;59900;50.788;12.904;2024-03-17T08:33:30;98211.38;;;5.54;80.45
72038;BME280;59900;50.788;12.904;2024-03-17T08:35:57;98200.81;;;5.56;80.36
72038;BME280;59900;50.788;12.904;2024-03-17T08:38:23;98207.06;;;5.63;80.73
72038;BME280;59900;50.788;12.904;2024-03-17T08:40:52;98200.56;;;5.67;80.42
72038;BME280;59900;50.788;12.904;2024-03-17T08:43:18;98191.63;;;5.70;80.16
72038;BME280;59900;50.788;12.904;2024-03-17T08:45:45;98201.16;;;5.79;79.88
72038;BME280;59900;50.788;12.904;2024-03-17T08:48:10;98193.88;;;5.82;77.80
72038;BME280;59900;50.788;12.904;2024-03-17T08:50:36;98190.56;;;5.90;78.63
72038;BME280;59900;50.788;12.904;2024-03-17T08:53:01;98181.50;;;6.02;78.94
72038;BME280;59900;50.788;12.904;2024-03-17T08:55:26;98186.03;;;6.17;78.62
72038;BME280;59900;50.788;12.904;2024-03-17T08:57:52;98187.13;;;6.33;77.88
72038;BME280;59900;50.788;12.904;2024-03-17T09:00:17;98181.06;;;6.32;76.63
72038;BME280;59900;50.788;12.904;2024-03-17T09:02:42;98186.50;;;6.39;77.43
72038;BME280;59900;50.788;12.904;2024-03-17T09:05:08;98176.59;;;6.42;76.77
72038;BME280;59900;50.788;12.904;2024-03-17T09:07:33;98178.38;;;6.42;76.95
72038;BME280;59900;50.788;12.904;2024-03-17T09:09:59;98172.66;;;6.46;76.68
72038;BME280;59900;50.788;12.904;2024-03-17T09:12:24;98165.34;;;6.50;76.09
72038;BME280;59900;50.788;12.904;2024-03-17T09:14:49;98163.88;;;6.47;74.33
72038;BME280;59900;50.788;12.904;2024-03-17T09:17:15;98161.75;;;6.43;73.92
72038;BME280;59900;50.788;12.904;2024-03-17T09:19:40;98163.53;;;6.42;73.73
72038;BME280;59900;50.788;12.904;2024-03-17T09:22:06;98165.66;;;6.47;73.97
72038;BME280;59900;50.788;12.904;2024-03-17T09:24:31;98166.31;;;6.49;74.39
72038;BME280;59900;50.788;12.904;2024-03-17T09:26:56;98151.84;;;6.54;74.22
72038;BME280;59900;50.788;12.904;2024-03-17T09:29:22;98150.50;;;6.50;73.49
72038;BME280;59900;50.788;12.904;2024-03-17T09:31:47;98156.03;;;6.47;74.45
72038;BME280;59900;50.788;12.904;2024-03-17T09:34:12;98152.16;;;6.51;74.88
72038;BME280;59900;50.788;12.904;2024-03-17T09:36:37;98153.63;;;6.54;75.02
72038;BME280;59900;50.788;12.904;2024-03-17T09:39:03;98160.34;;;6.56;75.18
72038;BME280;59900;50.788;12.904;2024-03-17T09:41:30;98161.44;;;6.46;70.12
72038;BME280;59900;50.788;12.904;2024-03-17T09:43:57;98159.94;;;6.43;71.11
72038;BME280;59900;50.788;12.904;2024-03-17T09:46:23;98161.88;;;6.41;68.36
72038;BME280;59900;50.788;12.904;2024-03-17T09:48:49;98159.78;;;6.45;67.84
72038;BME280;59900;50.788;12.904;2024-03-17T09:51:20;98157.88;;;6.55;67.61
72038;BME280;59900;50.788;12.904;2024-03-17T09:53:46;98165.56;;;6.56;66.37
72038;BME280;59900;50.788;12.904;2024-03-17T09:56:16;98158.06;;;6.61;68.02
72038;BME280;59900;50.788;12.904;2024-03-17T09:58:43;98153.88;;;6.68;68.29
72038;BME280;59900;50.788;12.904;2024-03-17T10:01:09;98140.22;;;6.83;65.97
72038;BME280;59900;50.788;12.904;2024-03-17T10:03:48;98146.47;;;6.98;65.62
72038;BME280;59900;50.788;12.904;2024-03-17T10:06:18;98155.63;;;7.02;65.07
72038;BME280;59900;50.788;12.904;2024-03-17T10:08:48;98156.22;;;6.88;63.64
72038;BME280;59900;50.788;12.904;2024-03-17T10:11:15;98148.03;;;6.74;63.75
72038;BME280;59900;50.788;12.904;2024-03-17T10:13:42;98149.00;;;6.73;64.65
72038;BME280;59900;50.788;12.904;2024-03-17T10:16:20;98154.06;;;6.75;64.62
72038;BME280;59900;50.788;12.904;2024-03-17T10:18:46;98159.00;;;6.78;64.85
72038;BME280;59900;50.788;12.904;2024-03-17T10:21:26;98155.56;;;6.78;63.33
72038;BME280;59900;50.788;12.904;2024-03-17T10:24:10;98147.13;;;6.92;63.69
72038;BME280;59900;50.788;12.904;2024-03-17T10:26:54;98156.59;;;6.93;64.75
72038;BME280;59900;50.788;12.904;2024-03-17T10:29:31;98154.09;;;6.83;64.50
72038;BME280;59900;50.788;12.904;2024-03-17T10:34:30;98152.13;;;6.77;63.68
72038;BME280;59900;50.788;12.904;2024-03-17T10:37:19;98156.81;;;6.65;62.80
72038;BME280;59900;50.788;12.904;2024-03-17T10:39:50;98148.47;;;6.70;62.48
72038;BME280;59900;50.788;12.904;2024-03-17T10:42:23;98142.50;;;6.78;61.60
72038;BME280;59900;50.788;12.904;2024-03-17T10:44:49;98137.94;;;6.88;61.20
72038;BME280;59900;50.788;12.904;2024-03-17T10:47:21;98133.41;;;6.98;61.45
72038;BME280;59900;50.788;12.904;2024-03-17T10:49:52;98135.22;;;7.05;62.30
72038;BME280;59900;50.788;12.904;2024-03-17T10:52:18;98134.13;;;7.16;61.33
72038;BME280;59900;50.788;12.904;2024-03-17T10:54:48;98138.72;;;7.22;60.02
72038;BME280;59900;50.788;12.904;2024-03-17T10:57:37;98125.16;;;7.34;59.32
72038;BME280;59900;50.788;12.904;2024-03-17T11:00:12;98135.81;;;7.49;59.62
72038;BME280;59900;50.788;12.904;2024-03-17T11:02:43;98131.56;;;7.56;60.38
72038;BME280;59900;50.788;12.904;2024-03-17T11:05:18;98132.53;;;7.55;59.64
72038;BME280;59900;50.788;12.904;2024-03-17T11:07:45;98135.47;;;7.52;60.04
72038;BME280;59900;50.788;12.904;2024-03-17T11:12:44;98118.81;;;7.61;61.34
72038;BME280;59900;50.788;12.904;2024-03-17T11:17:43;98115.72;;;7.98;58.38
72038;BME280;59900;50.788;12.904;2024-03-17T11:20:21;98104.75;;;8.03;57.94
72038;BME280;59900;50.788;12.904;2024-03-17T11:22:51;98116.03;;;8.03;59.03
72038;BME280;59900;50.788;12.904;2024-03-17T11:28:05;98118.78;;;8.02;58.35
72038;BME280;59900;50.788;12.904;2024-03-17T11:39:06;98101.00;;;7.89;58.82
72038;BME280;59900;50.788;12.904;2024-03-17T11:46:50;98103.56;;;8.13;58.32
72038;BME280;59900;50.788;12.904;2024-03-17T11:49:21;98087.34;;;8.34;58.89
72038;BME280;59900;50.788;12.904;2024-03-17T11:51:48;98098.38;;;8.60;58.54
72038;BME280;59900;50.788;12.904;2024-03-17T11:54:18;98098.00;;;8.79;57.79
72038;BME280;59900;50.788;12.904;2024-03-17T11:56:54;98096.69;;;8.83;55.84
72038;BME280;59900;50.788;12.904;2024-03-17T11:59:20;98089.94;;;8.81;55.40
72038;BME280;59900;50.788;12.904;2024-03-17T12:01:47;98090.13;;;8.79;55.11
72038;BME280;59900;50.788;12.904;2024-03-17T12:04:20;98097.66;;;8.82;55.12
72038;BME280;59900;50.788;12.904;2024-03-17T12:06:52;98107.03;;;8.77;56.31
72038;BME280;59900;50.788;12.904;2024-03-17T12:09:22;98101.28;;;8.73;56.67
72038;BME280;59900;50.788;12.904;2024-03-17T12:11:49;98101.00;;;8.68;56.10
72038;BME280;59900;50.788;12.904;2024-03-17T12:14:19;98097.38;;;8.69;56.52
72038;BME280;59900;50.788;12.904;2024-03-17T12:16:52;98085.91;;;8.70;56.40
72038;BME280;59900;50.788;12.904;2024-03-17T12:19:19;98079.38;;;8.66;57.30
72038;BME280;59900;50.788;12.904;2024-03-17T12:21:49;98080.72;;;8.62;57.20
72038;BME280;59900;50.788;12.904;2024-03-17T12:24:19;98073.69;;;8.55;57.26
72038;BME280;59900;50.788;12.904;2024-03-17T12:26:46;98065.22;;;8.44;58.12
72038;BME280;59900;50.788;12.904;2024-03-17T12:29:31;98068.78;;;8.52;57.21
72038;BME280;59900;50.788;12.904;2024-03-17T12:32:13;98066.22;;;8.43;57.55
72038;BME280;59900;50.788;12.904;2024-03-17T12:34:39;98070.28;;;8.54;56.41
72038;BME280;59900;50.788;12.904;2024-03-17T12:37:05;98065.81;;;8.63;55.39
72038;BME280;59900;50.788;12.904;2024-03-17T12:39:31;98058.34;;;8.82;55.08
72038;BME280;59900;50.788;12.904;2024-03-17T12:42:16;98055.81;;;8.97;53.58
72038;BME280;59900;50.788;12.904;2024-03-17T12:44:49;98060.44;;;9.18;53.50
72038;BME280;59900;50.788;12.904;2024-03-17T12:47:29;98062.28;;;9.32;53.25
72038;BME280;59900;50.788;12.904;2024-03-17T12:50:00;98063.97;;;9.25;53.05
72038;BME280;59900;50.788;12.904;2024-03-17T12:52:30;98062.75;;;9.13;53.69
72038;BME280;59900;50.788;12.904;2024-03-17T12:55:02;98067.94;;;9.21;53.07
72038;BME280;59900;50.788;12.904;2024-03-17T12:57:51;98058.38;;;9.28;53.14
72038;BME280;59900;50.788;12.904;2024-03-17T13:00:35;98053.38;;;9.41;52.79
72038;BME280;59900;50.788;12.904;2024-03-17T13:03:02;98058.28;;;9.44;52.88
72038;BME280;59900;50.788;12.904;2024-03-17T13:05:28;98047.19;;;9.56;52.62
72038;BME280;59900;50.788;12.904;2024-03-17T13:07:53;98052.31;;;9.87;51.59
72038;BME280;59900;50.788;12.904;2024-03-17T13:10:23;98044.81;;;9.99;51.02
72038;BME280;59900;50.788;12.904;2024-03-17T13:12:59;98047.25;;;9.86;50.86
72038;BME280;59900;50.788;12.904;2024-03-17T13:15:25;98037.72;;;9.70;51.38
72038;BME280;59900;50.788;12.904;2024-03-17T13:17:51;98039.97;;;9.73;51.63
72038;BME280;59900;50.788;12.904;2024-03-17T13:20:16;98030.97;;;10.05;51.47
72038;BME280;59900;50.788;12.904;2024-03-17T13:22:42;98040.66;;;10.04;51.34
72038;BME280;59900;50.788;12.904;2024-03-17T13:25:13;98031.53;;;10.00;51.97